Time;durP1;ratioP1;P1;durP2;ratioP2;P2;SDS_P1;SDS_P2;PMS_P1;PMS_P2;Temp;Humidity;BMP_temperature;BMP_pressure;BME280_temperature;BME280_humidity;BME280_pressure;Samples;Min_cycle;Max_cycle;Signal;HPM_P1;HPM_P2
2021/12/11 00:02:22;;;;;;;2.72;1.85;;;;;;;-5.97;97.26;101841.56;5054782;28;20081;-75
2021/12/11 00:04:56;;;;;;;4.55;3.15;;;;;;;-5.98;96.95;101844.91;5054797;28;20392;-77
2021/12/11 00:07:27;;;;;;;4.38;3.10;;;;;;;-5.97;97.13;101854.22;5054623;28;20103;-76
2021/12/11 00:09:58;;;;;;;4.60;2.65;;;;;;;-5.94;97.49;101862.75;5054387;28;20395;-77
2021/12/11 00:12:29;;;;;;;6.25;3.25;;;;;;;-5.92;97.84;101860.25;5054429;28;20153;-76
2021/12/11 00:15:02;;;;;;;6.40;3.40;;;;;;;-5.91;97.96;101864.50;5054693;28;20044;-76
2021/12/11 00:17:31;;;;;;;7.22;3.42;;;;;;;-5.95;97.84;101865.28;5054519;28;20080;-74
2021/12/11 00:19:59;;;;;;;6.47;3.58;;;;;;;-5.78;97.22;101861.53;5054468;28;20107;-75
2021/12/11 00:22:29;;;;;;;7.68;3.95;;;;;;;-5.75;97.14;101868.38;5054490;28;20102;-76
2021/12/11 00:25:01;;;;;;;5.75;3.60;;;;;;;-5.78;97.68;101860.66;5054106;28;20135;-75
2021/12/11 00:27:30;;;;;;;3.78;2.55;;;;;;;-5.70;97.12;101866.84;5054263;28;20051;-76
2021/12/11 00:29:57;;;;;;;5.38;2.67;;;;;;;-5.72;97.41;101859.19;5054466;28;20064;-74
2021/12/11 00:32:25;;;;;;;;;;;;;;;-5.74;97.21;101865.88;5054943;28;20047;-76
2021/12/11 00:34:54;;;;;;;3.90;2.28;;;;;;;-5.77;97.35;101868.31;5054130;28;19927;-78
2021/12/11 00:37:25;;;;;;;3.78;2.08;;;;;;;-5.78;97.75;101863.19;5054297;28;20049;-78
2021/12/11 00:39:55;;;;;;;2.30;1.98;;;;;;;-5.74;97.28;101865.88;5053924;28;20052;-78
2021/12/11 00:42:32;;;;;;;3.90;2.58;;;;;;;-5.73;97.42;101864.19;5054190;28;20055;-78
2021/12/11 00:45:01;;;;;;;6.93;3.42;;;;;;;-5.70;97.86;101860.09;5054217;28;20055;-78
2021/12/11 00:47:31;;;;;;;3.25;2.22;;;;;;;-5.70;97.58;101865.16;5054135;28;20131;-77
2021/12/11 00:50:01;;;;;;;8.35;4.00;;;;;;;-5.67;97.89;101861.00;5054126;28;20079;-77
2021/12/11 00:52:31;;;;;;;6.13;3.47;;;;;;;-5.66;97.67;101852.56;5054034;28;20071;-77
2021/12/11 00:54:59;;;;;;;5.68;3.25;;;;;;;-5.62;97.72;101849.31;5054211;28;20155;-77
2021/12/11 00:57:28;;;;;;;4.60;2.97;;;;;;;-5.59;97.95;101857.84;5053757;28;20483;-77
2021/12/11 01:00:05;;;;;;;5.45;3.05;;;;;;;-5.59;98.20;101862.94;5053799;28;20084;-77
2021/12/11 01:02:32;;;;;;;8.82;4.15;;;;;;;-5.59;98.14;101857.84;5053504;28;20123;-77
2021/12/11 01:04:59;;;;;;;;;;;;;;;-5.53;98.09;101858.03;5053909;28;20136;-78
2021/12/11 01:07:31;;;;;;;5.65;3.42;;;;;;;-5.50;98.13;101858.13;5053535;28;20011;-77
2021/12/11 01:10:01;;;;;;;9.20;3.70;;;;;;;-5.57;97.90;101853.69;5053473;28;20049;-77
2021/12/11 01:12:41;;;;;;;8.77;4.57;;;;;;;-5.50;98.26;101852.19;5053692;28;20069;-78
2021/12/11 01:15:13;;;;;;;9.50;4.35;;;;;;;-5.45;98.45;101859.91;5053466;28;20049;-77
2021/12/11 01:17:48;;;;;;;5.55;3.38;;;;;;;-5.35;98.32;101861.91;5053472;28;20076;-76
2021/12/11 01:20:21;;;;;;;9.65;4.50;;;;;;;-5.47;98.52;101859.91;5054009;28;20044;-77
2021/12/11 01:22:49;;;;;;;7.55;3.75;;;;;;;-5.39;98.55;101855.03;5053569;28;20103;-77
2021/12/11 01:25:20;;;;;;;6.45;3.47;;;;;;;-5.37;98.27;101863.53;5053471;28;20606;-74
2021/12/11 01:27:51;;;;;;;9.38;4.45;;;;;;;-5.38;98.34;101859.28;5053428;28;20152;-78
2021/12/11 01:30:24;;;;;;;6.07;3.72;;;;;;;-5.35;98.28;101862.75;5053264;28;20053;-77
2021/12/11 01:32:51;;;;;;;7.78;3.60;;;;;;;-5.26;98.19;101854.56;5053210;28;20127;-77
2021/12/11 01:35:19;;;;;;;4.93;2.83;;;;;;;-5.19;98.33;101858.94;5053111;28;20533;-77
2021/12/11 01:37:49;;;;;;;4.47;3.13;;;;;;;-5.15;98.68;101857.38;5053459;28;20063;-78
2021/12/11 01:40:21;;;;;;;3.38;2.58;;;;;;;-5.17;98.47;101856.47;5053892;28;20079;-77
2021/12/11 01:42:50;;;;;;;6.78;3.85;;;;;;;-5.32;97.48;101851.84;5053570;28;20134;-77
2021/12/11 01:45:18;;;;;;;7.10;3.85;;;;;;;-5.27;97.74;101860.44;5053203;28;20407;-77
2021/12/11 01:47:48;;;;;;;3.60;2.65;;;;;;;-5.26;97.48;101859.63;5052920;28;20128;-76
2021/12/11 01:50:20;;;;;;;9.10;4.00;;;;;;;-5.40;97.78;101849.09;5052689;28;20139;-77
2021/12/11 01:52:53;;;;;;;6.25;3.80;;;;;;;-5.38;98.08;101859.28;5053094;28;20080;-76
2021/12/11 01:55:29;;;;;;;3.00;2.17;;;;;;;-5.23;97.45;101861.41;5052423;28;20069;-77
2021/12/11 01:57:58;;;;;;;6.70;3.08;;;;;;;-5.27;97.78;101858.78;5052685;28;20041;-76
2021/12/11 02:00:29;;;;;;;6.18;3.40;;;;;;;-5.24;97.66;101865.63;5052861;28;20076;-77
2021/12/11 02:02:59;;;;;;;4.25;1.90;;;;;;;-5.25;97.60;101867.25;5052565;28;20048;-76
2021/12/11 02:05:29;;;;;;;5.15;3.33;;;;;;;-5.25;98.00;101869.81;5052667;28;20571;-77
2021/12/11 02:08:00;;;;;;;6.55;3.22;;;;;;;-5.29;97.49;101875.63;5052632;28;20454;-76
2021/12/11 02:10:33;;;;;;;7.88;3.45;;;;;;;-5.26;97.70;101869.78;5052362;28;20052;-77
2021/12/11 02:13:05;;;;;;;6.60;3.03;;;;;;;-5.20;97.01;101875.00;5052564;28;20484;-77
2021/12/11 02:15:37;;;;;;;6.40;3.53;;;;;;;-5.24;97.30;101878.31;5052481;28;20055;-77
2021/12/11 02:18:11;;;;;;;5.70;2.97;;;;;;;-5.25;97.09;101868.94;5052265;28;20080;-76
2021/12/11 02:20:41;;;;;;;2.33;1.30;;;;;;;-5.28;98.00;101874.78;5052379;28;20558;-77
2021/12/11 02:23:10;;;;;;;8.13;3.17;;;;;;;-5.30;97.74;101873.88;5052337;28;20041;-77
2021/12/11 02:25:43;;;;;;;3.45;2.25;;;;;;;-5.27;97.50;101879.06;5051937;28;20049;-77
2021/12/11 02:28:16;;;;;;;4.70;3.38;;;;;;;-5.23;97.41;101872.41;5052120;28;20128;-77
2021/12/11 02:30:47;;;;;;;4.85;3.45;;;;;;;-5.26;97.97;101880.78;5052141;28;20143;-76
2021/12/11 02:33:20;;;;;;;6.80;2.88;;;;;;;-5.30;97.55;101878.09;5052271;28;20131;-77
2021/12/11 02:35:51;;;;;;;8.75;3.45;;;;;;;-5.23;97.52;101879.16;5052271;28;20110;-77
2021/12/11 02:38:22;;;;;;;7.88;3.63;;;;;;;-5.22;97.59;101881.72;5052282;28;20056;-77
2021/12/11 02:40:55;;;;;;;2.47;2.15;;;;;;;-5.23;97.41;101884.22;5052183;28;20128;-77
2021/12/11 02:43:26;;;;;;;5.35;3.20;;;;;;;-5.29;97.18;101884.91;5052315;28;20045;-77
2021/12/11 02:46:01;;;;;;;7.55;3.75;;;;;;;-5.27;97.76;101880.72;5052063;28;20498;-77
2021/12/11 02:48:36;;;;;;;4.53;2.97;;;;;;;-5.32;97.35;101879.75;5051795;28;20441;-77
2021/12/11 02:51:10;;;;;;;6.60;3.80;;;;;;;-5.24;97.24;101883.38;5052428;28;20072;-77
2021/12/11 02:53:43;;;;;;;5.90;3.45;;;;;;;-5.25;97.24;101884.16;5052097;28;20136;-77
2021/12/11 02:56:15;;;;;;;2.72;2.30;;;;;;;-5.23;97.35;101894.38;5051821;28;20081;-77
2021/12/11 02:58:45;;;;;;;5.88;2.80;;;;;;;-5.19;97.46;101888.56;5051642;28;20546;-77
2021/12/11 03:01:22;;;;;;;8.52;4.03;;;;;;;-5.22;97.52;101896.94;5051589;28;20128;-77
2021/12/11 03:03:56;;;;;;;1.05;1.05;;;;;;;-5.17;97.48;101895.38;5051875;28;20049;-78
2021/12/11 03:06:28;;;;;;;5.55;3.22;;;;;;;-5.23;97.81;101895.22;5053075;28;20166;-77
2021/12/11 03:08:59;;;;;;;5.85;3.50;;;;;;;-5.14;97.75;101892.06;5056239;28;20045;-75
2021/12/11 03:11:31;;;;;;;9.23;4.00;;;;;;;-5.15;98.21;101886.16;5056648;28;20139;-76
2021/12/11 03:13:58;;;;;;;8.65;4.63;;;;;;;-5.23;98.04;101890.16;5055972;28;20049;-76
2021/12/11 03:16:29;;;;;;;6.88;3.17;;;;;;;-5.18;98.30;101890.28;5056024;28;20128;-75
2021/12/11 03:18:59;;;;;;;7.80;3.80;;;;;;;-5.24;98.37;101890.97;5056049;28;20124;-76
2021/12/11 03:21:26;;;;;;;7.35;3.45;;;;;;;-5.18;98.39;101890.28;5055923;28;20480;-75
2021/12/11 03:23:56;;;;;;;7.68;3.88;;;;;;;-5.04;97.96;101881.34;5055942;28;20136;-75
2021/12/11 03:26:28;;;;;;;7.72;4.18;;;;;;;-5.10;98.30;101889.66;5055982;28;20041;-75
2021/12/11 03:28:55;;;;;;;9.80;4.03;;;;;;;-5.15;97.93;101880.22;5055922;28;20071;-76
2021/12/11 03:31:22;;;;;;;8.93;3.90;;;;;;;-5.18;98.07;101881.00;5055739;28;20037;-76
2021/12/11 03:33:53;;;;;;;6.15;3.67;;;;;;;-5.11;97.97;101880.34;5055585;28;20072;-76
2021/12/11 03:36:23;;;;;;;9.25;3.90;;;;;;;-5.02;97.73;101879.72;5055405;28;20128;-75
2021/12/11 03:38:54;;;;;;;7.20;4.13;;;;;;;-5.05;97.65;101883.03;5055652;28;20063;-76
2021/12/11 03:41:23;;;;;;;6.03;3.72;;;;;;;-4.98;98.50;101875.56;5055372;28;20055;-77
2021/12/11 03:43:52;;;;;;;7.30;3.67;;;;;;;-4.88;97.82;101869.94;5055217;28;20131;-74
2021/12/11 03:46:20;;;;;;;6.32;3.92;;;;;;;-4.90;97.61;101880.06;5055144;28;20139;-74
2021/12/11 03:48:50;;;;;;;7.70;3.70;;;;;;;-4.90;98.18;101881.75;5054766;28;20077;-76
2021/12/11 03:51:21;;;;;;;11.68;4.57;;;;;;;-5.10;97.39;101882.06;5055227;28;20131;-75
2021/12/11 03:53:48;;;;;;;8.25;4.20;;;;;;;-4.94;98.19;101877.38;5055132;28;20087;-76
2021/12/11 03:56:17;;;;;;;11.82;4.07;;;;;;;-4.91;97.60;101877.47;5055270;28;20140;-77
2021/12/11 03:58:49;;;;;;;9.38;4.30;;;;;;;-4.82;97.97;101878.56;5054929;28;20068;-76
2021/12/11 04:01:25;;;;;;;8.13;4.13;;;;;;;-4.88;97.84;101880.97;5054766;28;20132;-77
2021/12/11 04:03:54;;;;;;;4.82;2.88;;;;;;;-4.83;98.06;101879.41;5055099;28;20140;-76
2021/12/11 04:06:22;;;;;;;2.22;1.77;;;;;;;-4.82;98.19;101887.88;5055099;28;20140;-77
2021/12/11 04:08:49;;;;;;;6.97;3.13;;;;;;;-4.81;98.47;101887.03;5054829;28;20044;-77
2021/12/11 04:11:20;;;;;;;4.72;2.78;;;;;;;-4.83;98.73;101887.03;5054878;28;20128;-75
2021/12/11 04:13:50;;;;;;;8.27;4.35;;;;;;;-4.86;98.56;101894.53;5054765;28;20044;-76
2021/12/11 04:16:19;;;;;;;9.98;4.80;;;;;;;-4.88;98.56;101887.69;5054462;28;20072;-77
2021/12/11 04:18:46;;;;;;;6.30;3.33;;;;;;;-4.82;98.98;101887.88;5054134;28;20076;-74
2021/12/11 04:21:14;;;;;;;6.68;3.42;;;;;;;-4.93;99.06;101887.59;5054721;28;20140;-74
2021/12/11 04:23:42;;;;;;;5.50;3.17;;;;;;;-4.84;99.69;101895.44;5054721;28;20073;-74
2021/12/11 04:26:09;;;;;;;6.57;3.75;;;;;;;-4.86;99.42;101879.31;5054504;28;20056;-75
2021/12/11 04:28:39;;;;;;;4.60;2.90;;;;;;;-4.81;99.18;101884.50;5054448;28;20146;-76
2021/12/11 04:31:10;;;;;;;7.97;3.75;;;;;;;-4.78;99.49;101881.19;5054394;28;20499;-76
2021/12/11 04:33:41;;;;;;;7.35;3.50;;;;;;;-4.73;99.83;101885.56;5054583;28;20047;-76
2021/12/11 04:36:12;;;;;;;7.90;4.10;;;;;;;-4.76;99.42;101877.88;5054413;28;20128;-77
2021/12/11 04:38:40;;;;;;;7.40;4.18;;;;;;;-4.81;99.54;101875.19;5066119;22;20079;-71
2021/12/11 04:41:09;;;;;;;10.65;3.85;;;;;;;-4.76;99.10;101877.88;5054100;28;20076;-64
2021/12/11 04:43:36;;;;;;;8.90;4.28;;;;;;;-4.78;99.22;101876.97;5054149;28;20067;-66
2021/12/11 04:46:08;;;;;;;8.65;5.00;;;;;;;-4.76;99.12;101882.94;5054350;28;20081;-65
2021/12/11 04:48:53;;;;;;;9.43;4.25;;;;;;;-4.72;99.22;101871.22;5054019;28;20141;-72
2021/12/11 04:51:26;;;;;;;9.07;4.63;;;;;;;-4.73;98.99;101877.94;5053994;28;20103;-66
2021/12/11 04:54:04;;;;;;;7.30;3.80;;;;;;;-4.71;98.73;101881.38;5054306;28;20485;-78
2021/12/11 04:56:59;;;;;;;11.63;4.85;;;;;;;-4.81;99.04;101894.66;5054212;28;20483;-74
2021/12/11 04:59:41;;;;;;;3.75;2.47;;;;;;;-4.71;99.24;101888.16;5053864;28;20049;-76
2021/12/11 05:02:36;;;;;;;7.35;3.90;;;;;;;-4.74;99.26;101901.63;5054173;28;20388;-76
2021/12/11 05:05:16;;;;;;;8.27;4.38;;;;;;;-4.77;98.92;101893.09;5054028;28;20053;-71
2021/12/11 05:08:00;;;;;;;9.32;3.90;;;;;;;-4.75;99.43;101899.03;5053822;28;20053;-66
2021/12/11 05:10:38;;;;;;;6.57;4.05;;;;;;;-4.70;98.94;101888.19;5053911;28;20052;-73
2021/12/11 05:13:05;;;;;;;;;;;;;;;-4.61;98.58;101887.56;5054403;28;20069;-68
2021/12/11 05:15:35;;;;;;;12.40;4.45;;;;;;;-4.75;98.66;101883.81;5053941;28;20020;-75
2021/12/11 05:18:05;;;;;;;12.90;4.35;;;;;;;-4.69;98.61;101878.91;5053951;28;20144;-70
2021/12/11 05:20:35;;;;;;;7.50;4.55;;;;;;;-4.62;98.46;101880.78;5053611;28;20138;-70
2021/12/11 05:23:02;;;;;;;8.00;3.75;;;;;;;-4.60;98.62;101882.53;5054031;28;20132;-66
2021/12/11 05:25:30;;;;;;;11.32;4.50;;;;;;;-4.62;98.45;101879.09;5053469;28;20089;-66
2021/12/11 05:27:58;;;;;;;9.00;3.90;;;;;;;-4.66;98.68;101884.03;5053243;28;20045;-74
2021/12/11 05:30:34;;;;;;;7.85;3.90;;;;;;;-4.63;98.60;101874.81;5052487;28;20073;-65
2021/12/11 05:33:01;;;;;;;10.60;4.30;;;;;;;-4.67;98.78;101880.66;5053546;28;20582;-78
2021/12/11 05:35:30;;;;;;;8.52;3.90;;;;;;;-4.67;98.87;101880.66;5053466;28;20139;-66
2021/12/11 05:37:59;;;;;;;9.15;4.40;;;;;;;-4.70;99.09;101875.50;5065330;22;20084;-77
2021/12/11 05:40:29;;;;;;;9.05;4.65;;;;;;;-4.70;99.02;101880.59;5072930;28;20053;-78
2021/12/11 05:42:57;;;;;;;3.90;2.70;;;;;;;-4.66;98.81;101873.88;5072915;28;20135;-75
2021/12/11 05:45:25;;;;;;;5.38;2.42;;;;;;;-4.63;98.54;101879.91;5072957;28;20054;-76
2021/12/11 05:47:53;;;;;;;9.98;3.75;;;;;;;-4.61;98.98;101879.94;5073096;28;20083;-78
2021/12/11 05:50:24;;;;;;;7.93;4.10;;;;;;;-4.62;98.64;101878.25;5072877;28;20049;-77
2021/12/11 05:52:52;;;;;;;9.45;4.03;;;;;;;-4.61;98.55;101880.78;5072950;28;20051;-77
2021/12/11 05:55:22;;;;;;;11.57;4.72;;;;;;;-4.66;99.05;101884.91;5072904;28;20047;-76
2021/12/11 05:57:54;;;;;;;7.70;4.28;;;;;;;-4.64;98.81;101882.41;5072767;28;20048;-77
2021/12/11 06:00:25;;;;;;;5.55;3.22;;;;;;;-4.57;98.73;101883.41;5072583;28;20052;-77
2021/12/11 06:02:53;;;;;;;9.27;4.30;;;;;;;-4.58;98.41;101885.09;5072916;28;20045;-78
2021/12/11 06:05:20;;;;;;;10.93;4.47;;;;;;;-4.57;99.15;101893.56;5072664;28;20135;-77
2021/12/11 06:07:47;;;;;;;3.42;2.28;;;;;;;-4.57;99.21;101889.38;5072523;28;20471;-76
2021/12/11 06:10:19;;;;;;;8.43;4.72;;;;;;;-4.65;99.43;101886.63;5072379;28;20066;-78
2021/12/11 06:12:50;;;;;;;4.97;2.92;;;;;;;-4.57;99.16;101889.38;5072627;28;20060;-76
2021/12/11 06:15:17;;;;;;;9.32;3.78;;;;;;;-4.56;99.51;101890.22;5072699;28;20056;-77
2021/12/11 06:17:46;;;;;;;6.35;3.53;;;;;;;-4.56;99.43;101888.53;5072284;28;20403;-76
2021/12/11 06:20:16;;;;;;;6.13;3.42;;;;;;;-4.52;98.92;101897.97;5072729;28;20047;-75
2021/12/11 06:22:44;;;;;;;11.32;6.03;;;;;;;-4.53;99.65;101895.38;5072528;28;20131;-74
2021/12/11 06:25:13;;;;;;;3.25;2.08;;;;;;;-4.53;99.59;101903.00;5072262;28;20132;-77
2021/12/11 06:27:41;;;;;;;9.65;4.70;;;;;;;-4.53;99.23;101896.22;5072139;28;20477;-75
2021/12/11 06:30:10;;;;;;;;;;;;;;;-4.50;99.19;101898.84;5072849;28;20144;-75
2021/12/11 06:32:38;;;;;;;8.40;4.40;;;;;;;-4.52;98.91;101900.50;5072599;28;20003;-76
2021/12/11 06:35:09;;;;;;;10.23;4.65;;;;;;;-4.52;98.98;101902.16;5072174;28;20048;-77
2021/12/11 06:37:40;;;;;;;10.25;5.03;;;;;;;-4.49;99.40;101898.03;5072251;28;20143;-79
2021/12/11 06:40:09;;;;;;;9.02;4.82;;;;;;;-4.44;98.94;101899.00;5072072;28;20056;-74
2021/12/11 06:42:36;;;;;;;4.97;3.15;;;;;;;-4.46;99.18;101893.03;5072750;28;20491;-76
2021/12/11 06:45:04;;;;;;;10.00;4.60;;;;;;;-4.49;98.93;101895.50;5072550;28;20060;-76
2021/12/11 06:47:32;;;;;;;8.93;2.70;;;;;;;-4.43;99.31;101899.88;5071856;28;20147;-77
2021/12/11 06:49:59;;;;;;;4.72;2.97;;;;;;;-4.47;99.28;101908.22;5072069;28;20048;-75
2021/12/11 06:52:28;;;;;;;7.57;4.13;;;;;;;-4.48;99.29;101917.53;5072087;28;20136;-77
2021/12/11 06:54:55;;;;;;;6.10;4.03;;;;;;;-4.46;99.63;101907.41;5071880;28;20048;-77
2021/12/11 06:57:22;;;;;;;9.07;4.13;;;;;;;-4.45;99.55;101916.75;5072172;28;20083;-75
2021/12/11 06:59:50;;;;;;;3.10;2.42;;;;;;;-4.44;99.66;101919.34;5072153;28;20405;-77
2021/12/11 07:02:18;;;;;;;13.13;5.43;;;;;;;-4.44;99.34;101921.03;5071985;28;20139;-76
2021/12/11 07:04:48;;;;;;;6.90;3.92;;;;;;;-4.43;99.47;101923.59;5071627;28;20461;-76
2021/12/11 07:07:20;;;;;;;9.38;5.30;;;;;;;-4.44;100.00;101928.66;5072030;28;20048;-77
2021/12/11 07:09:48;;;;;;;6.03;3.55;;;;;;;-4.42;99.78;101926.97;5071842;28;20047;-76
2021/12/11 07:12:16;;;;;;;7.63;4.45;;;;;;;-4.40;99.67;101930.44;5071773;28;20055;-76
2021/12/11 07:14:43;;;;;;;12.65;6.22;;;;;;;-4.45;99.56;101930.31;5071739;28;20144;-76
2021/12/11 07:17:11;;;;;;;6.80;3.38;;;;;;;-4.39;99.37;101925.41;5072089;28;20051;-75
2021/12/11 07:19:38;;;;;;;9.75;5.55;;;;;;;-4.39;99.05;101922.84;5072219;28;20044;-77
2021/12/11 07:22:06;;;;;;;8.23;4.55;;;;;;;-4.36;99.38;101932.22;5071622;28;20048;-76
2021/12/11 07:24:37;;;;;;;9.15;5.28;;;;;;;-4.44;99.43;101934.59;5071913;28;20151;-76
2021/12/11 07:27:08;;;;;;;9.15;4.75;;;;;;;-4.41;99.03;101937.19;5071702;28;20051;-75
2021/12/11 07:29:37;;;;;;;8.70;5.00;;;;;;;-4.37;98.94;101935.56;5071832;28;20474;-76
2021/12/11 07:32:05;;;;;;;9.13;4.68;;;;;;;-4.35;99.23;101930.56;5071495;28;20064;-76
2021/12/11 07:34:32;;;;;;;9.65;5.13;;;;;;;-4.32;99.04;101936.56;5071754;28;20083;-77
2021/12/11 07:37:02;;;;;;;9.48;4.95;;;;;;;-4.30;99.02;101937.47;5071653;28;20045;-77
2021/12/11 07:39:30;;;;;;;9.73;4.85;;;;;;;-4.27;99.02;101936.69;5071827;28;20103;-77
2021/12/11 07:41:58;;;;;;;6.65;3.90;;;;;;;-4.28;98.44;101943.44;5071490;28;20157;-77
2021/12/11 07:44:26;;;;;;;8.25;4.57;;;;;;;-4.31;98.49;101937.44;5071544;28;20124;-76
2021/12/11 07:46:56;;;;;;;7.90;4.78;;;;;;;-4.30;98.73;101929.84;5071863;28;20045;-76
2021/12/11 07:49:23;;;;;;;9.30;4.80;;;;;;;-4.38;98.78;101927.09;5071495;28;20059;-77
2021/12/11 07:51:50;;;;;;;9.10;4.80;;;;;;;-4.34;98.98;101925.53;5071529;28;20048;-76
2021/12/11 07:54:19;;;;;;;8.05;3.50;;;;;;;-4.24;98.93;101929.13;5075150;28;20147;-76
2021/12/11 07:56:48;;;;;;;4.45;3.45;;;;;;;-4.27;98.21;101929.06;5074991;28;20136;-76
2021/12/11 07:59:15;;;;;;;5.30;3.05;;;;;;;-4.31;98.83;101932.34;5075271;28;20136;-76
2021/12/11 08:01:46;;;;;;;8.70;4.00;;;;;;;-4.32;98.64;101938.25;5075105;28;20135;-75
2021/12/11 08:04:13;;;;;;;11.48;4.93;;;;;;;-4.25;99.17;101937.59;5075110;28;20051;-75
2021/12/11 08:06:42;;;;;;;4.60;3.25;;;;;;;-4.18;98.69;101937.78;5075230;28;20091;-77
2021/12/11 08:09:12;;;;;;;5.22;2.55;;;;;;;-4.19;98.91;101940.25;5074844;28;20135;-75
2021/12/11 08:11:40;;;;;;;9.73;4.70;;;;;;;-4.22;99.08;101940.19;5074879;28;20136;-74
2021/12/11 08:14:10;;;;;;;9.30;4.65;;;;;;;-4.23;99.22;101929.16;5075024;28;20048;-75
2021/12/11 08:16:46;;;;;;;9.40;5.20;;;;;;;-4.31;98.90;101938.28;5074945;28;20124;-77
2021/12/11 08:19:17;;;;;;;2.92;2.38;;;;;;;-4.16;98.46;101935.28;5074900;28;20041;-76
2021/12/11 08:21:45;;;;;;;8.80;5.03;;;;;;;-4.17;98.40;101934.38;5074962;28;20044;-74
2021/12/11 08:24:12;;;;;;;8.45;4.25;;;;;;;-4.19;98.71;101937.72;5075253;28;20139;-75
2021/12/11 08:26:41;;;;;;;8.75;5.45;;;;;;;-4.13;98.16;101932.81;5074888;28;20136;-76
2021/12/11 08:29:12;;;;;;;9.77;5.05;;;;;;;-4.35;98.56;101930.56;5074647;28;20055;-74
2021/12/11 08:31:42;;;;;;;9.95;5.00;;;;;;;-4.33;98.29;101936.53;5074757;28;20044;-75
2021/12/11 08:34:10;;;;;;;7.57;4.40;;;;;;;-4.18;98.24;101942.00;5074511;28;20502;-77
2021/12/11 08:36:37;;;;;;;7.68;4.65;;;;;;;-4.18;97.92;101942.84;5074365;28;20062;-77
2021/12/11 08:39:06;;;;;;;8.70;4.70;;;;;;;-4.32;98.39;101936.56;5083377;22;20064;-63
2021/12/11 08:41:34;;;;;;;7.80;4.55;;;;;;;-4.27;98.08;101940.06;5074417;28;20056;-78
2021/12/11 08:44:07;;;;;;;10.60;5.25;;;;;;;-4.40;98.21;101940.59;5074226;28;20135;-77
2021/12/11 08:46:36;;;;;;;7.75;4.15;;;;;;;-4.15;97.91;101942.06;5074271;28;20044;-77
2021/12/11 08:49:07;;;;;;;9.35;5.05;;;;;;;-4.27;97.64;101932.44;5073807;28;20135;-71
2021/12/11 08:51:37;;;;;;;9.40;5.15;;;;;;;-4.31;97.80;101945.06;5074421;28;20132;-76
2021/12/11 08:54:05;;;;;;;9.38;4.78;;;;;;;-4.31;97.82;101938.28;5074117;28;20044;-77
2021/12/11 08:56:32;;;;;;;8.50;4.78;;;;;;;-4.33;98.38;101941.63;5073849;28;20135;-72
2021/12/11 08:58:59;;;;;;;7.28;4.43;;;;;;;-4.39;97.65;101937.25;5073773;28;20127;-72
2021/12/11 09:01:31;;;;;;;6.65;4.18;;;;;;;-4.45;98.22;101945.53;5073629;28;20055;-77
2021/12/11 09:04:04;;;;;;;11.98;4.72;;;;;;;-4.48;97.73;101942.94;5073804;28;20135;-78
2021/12/11 09:06:37;;;;;;;9.07;5.00;;;;;;;-4.35;97.13;101949.19;5074033;28;20129;-78
2021/12/11 09:09:09;;;;;;;8.38;4.53;;;;;;;-4.41;96.37;101949.03;5073721;28;20131;-75
2021/12/11 09:11:40;;;;;;;7.75;4.32;;;;;;;-4.49;97.89;101958.16;5073620;28;20131;-72
2021/12/11 09:14:12;;;;;;;6.70;4.40;;;;;;;-4.57;97.55;101954.53;5073569;28;20057;-77
2021/12/11 09:16:44;;;;;;;9.43;4.07;;;;;;;-4.38;96.84;101952.50;5073657;28;20163;-77
2021/12/11 09:19:16;;;;;;;8.50;4.68;;;;;;;-4.61;97.63;101949.38;5073301;28;20143;-73
2021/12/11 09:21:50;;;;;;;7.43;4.05;;;;;;;-4.57;98.81;101957.97;5073475;28;20131;-78
2021/12/11 09:24:24;;;;;;;7.85;4.18;;;;;;;-4.38;97.39;101951.66;5073596;28;20139;-76
2021/12/11 09:26:55;;;;;;;8.82;3.95;;;;;;;-4.53;98.07;101956.34;5073359;28;20076;-77
2021/12/11 09:29:25;;;;;;;8.65;4.47;;;;;;;-4.40;97.14;101961.78;5073079;28;20135;-76
2021/12/11 09:32:05;;;;;;;8.90;4.97;;;;;;;-4.53;97.36;101961.41;5073052;28;20502;-77
2021/12/11 09:34:38;;;;;;;9.10;4.72;;;;;;;-4.35;97.01;101964.44;5073338;28;20045;-70
2021/12/11 09:37:07;;;;;;;9.20;4.25;;;;;;;-4.40;97.06;101971.94;5073100;28;20143;-75
2021/12/11 09:39:39;;;;;;;10.55;4.15;;;;;;;-4.52;96.81;101960.59;5083529;22;20447;-74
2021/12/11 09:42:05;;;;;;;10.43;4.90;;;;;;;-4.61;97.34;101974.78;5072946;28;20483;-74
2021/12/11 09:44:40;;;;;;;6.20;3.87;;;;;;;-4.46;96.70;101961.63;5073073;28;20121;-75
2021/12/11 09:47:12;;;;;;;6.10;3.90;;;;;;;-4.81;98.01;101970.84;5072795;28;20055;-75
2021/12/11 09:49:44;;;;;;;10.48;4.40;;;;;;;-4.53;96.96;101958.88;5072977;28;20455;-74
2021/12/11 09:52:19;;;;;;;6.70;4.25;;;;;;;-4.55;96.97;101970.69;5073073;28;20049;-74
2021/12/11 09:54:49;;;;;;;10.77;4.97;;;;;;;-4.65;97.14;101967.91;5072779;28;20049;-75
2021/12/11 09:57:19;;;;;;;6.68;3.97;;;;;;;-4.53;97.13;101969.91;5072842;28;20132;-74
2021/12/11 09:59:50;;;;;;;7.90;4.28;;;;;;;-4.72;96.80;101976.19;5072656;28;20123;-75
2021/12/11 10:02:22;;;;;;;7.05;3.95;;;;;;;-4.72;97.50;101966.03;5073070;28;20132;-75
2021/12/11 10:04:59;;;;;;;9.60;5.30;;;;;;;-4.82;98.00;101975.06;5073047;28;20075;-75
2021/12/11 10:07:31;;;;;;;11.93;5.40;;;;;;;-4.86;98.36;101972.38;5072464;28;20448;-75
2021/12/11 10:10:06;;;;;;;7.57;4.30;;;;;;;-4.75;97.86;101975.22;5072315;28;20801;-74
2021/12/11 10:12:38;;;;;;;9.05;4.40;;;;;;;-4.73;97.47;101969.34;5072455;28;20136;-74
2021/12/11 10:15:12;;;;;;;8.27;4.65;;;;;;;-4.80;97.57;101972.56;5071663;28;20083;-76
2021/12/11 10:17:43;;;;;;;7.47;4.57;;;;;;;-4.74;97.29;101972.72;5072360;28;20127;-75
2021/12/11 10:20:14;;;;;;;9.70;5.07;;;;;;;-4.71;97.16;101982.97;5072150;28;20082;-75
2021/12/11 10:22:43;;;;;;;9.88;4.60;;;;;;;-4.50;96.61;101982.66;5072150;28;20375;-75
2021/12/11 10:25:15;;;;;;;10.55;4.70;;;;;;;-4.52;96.63;101978.38;5072314;28;20397;-74
2021/12/11 10:27:44;;;;;;;9.07;4.57;;;;;;;-4.50;96.02;101979.28;5072368;28;20521;-75
2021/12/11 10:30:17;;;;;;;13.93;5.43;;;;;;;-4.53;96.42;101979.22;5072209;28;20139;-75
2021/12/11 10:32:44;;;;;;;8.07;3.97;;;;;;;-4.52;96.08;101979.25;5072147;28;20139;-74
2021/12/11 10:35:14;;;;;;;8.45;4.63;;;;;;;-4.57;96.38;101978.28;5071969;28;20504;-74
2021/12/11 10:37:43;;;;;;;8.10;5.10;;;;;;;-4.75;96.70;101978.63;5071861;28;20044;-74
2021/12/11 10:40:16;;;;;;;7.95;4.55;;;;;;;-4.82;97.01;101981.81;5072284;28;20062;-75
2021/12/11 10:42:45;;;;;;;7.55;4.53;;;;;;;-4.91;97.60;101977.31;5071921;28;20159;-74
2021/12/11 10:45:17;;;;;;;10.38;5.30;;;;;;;-4.98;97.83;101977.13;5072207;28;20482;-74
2021/12/11 10:47:49;;;;;;;7.70;4.80;;;;;;;-4.76;97.82;101969.28;5071900;28;20135;-74
2021/12/11 10:50:23;;;;;;;9.95;4.55;;;;;;;-4.83;97.86;101963.19;5071780;28;20574;-74
2021/12/11 10:52:51;;;;;;;8.20;4.63;;;;;;;-4.84;97.51;101963.13;5072114;28;20128;-74
2021/12/11 10:55:23;;;;;;;7.22;4.68;;;;;;;-4.72;96.93;101960.94;5071993;28;20498;-75
2021/12/11 10:57:53;;;;;;;9.73;4.90;;;;;;;-4.92;97.65;101969.69;5071961;28;20425;-74
2021/12/11 11:00:27;;;;;;;8.40;5.15;;;;;;;-4.84;97.40;101963.13;5071984;28;20091;-74
2021/12/11 11:02:56;;;;;;;7.88;4.45;;;;;;;-4.76;97.17;101965.88;5072098;28;20051;-64
2021/12/11 11:05:26;;;;;;;10.63;4.78;;;;;;;-4.75;97.25;101955.78;5072086;28;20044;-65
2021/12/11 11:07:54;;;;;;;8.95;4.75;;;;;;;-4.75;96.97;101960.88;5072127;28;20080;-65
2021/12/11 11:10:24;;;;;;;10.63;4.82;;;;;;;-4.91;97.74;101953.63;5071628;28;20090;-65
2021/12/11 11:12:53;;;;;;;9.90;4.85;;;;;;;-4.81;97.40;101947.97;5072123;28;20136;-65
2021/12/11 11:15:23;;;;;;;8.55;5.10;;;;;;;-4.71;97.38;101954.19;5071031;28;20418;-65
2021/12/11 11:17:53;;;;;;;8.82;4.88;;;;;;;-4.75;97.14;101947.28;5071493;28;20483;-63
2021/12/11 11:20:23;;;;;;;8.65;4.70;;;;;;;-4.79;97.14;101948.88;5071570;28;20127;-62
2021/12/11 11:22:50;;;;;;;8.48;5.32;;;;;;;-4.78;97.42;101939.59;5071331;28;20569;-65
2021/12/11 11:25:21;;;;;;;8.32;4.13;;;;;;;-4.82;97.54;101942.06;5071371;28;20401;-63
2021/12/11 11:27:54;;;;;;;8.43;4.97;;;;;;;-4.83;97.37;101942.88;5073279;28;20139;-64
2021/12/11 11:30:27;;;;;;;10.35;4.80;;;;;;;-4.84;97.69;101945.38;5075450;28;20147;-63
2021/12/11 11:32:55;;;;;;;9.65;4.97;;;;;;;-4.90;97.90;101941.00;5075797;28;20163;-63
2021/12/11 11:35:25;;;;;;;8.27;4.65;;;;;;;-4.94;98.74;101948.47;5075885;28;20048;-67
2021/12/11 11:37:59;;;;;;;10.45;5.10;;;;;;;-4.96;98.75;101945.03;5075494;28;20135;-64
2021/12/11 11:40:29;;;;;;;9.25;4.97;;;;;;;-4.90;98.47;101951.16;5075362;28;20143;-63